Time;durP1;ratioP1;P1;durP2;ratioP2;P2;SDS_P1;SDS_P2;PMS_P1;PMS_P2;Temp;Humidity;BMP_temperature;BMP_pressure;BME280_temperature;BME280_humidity;BME280_pressure;Samples;Min_cycle;Max_cycle;Signal;HPM_P1;HPM_P2
2021/06/27 00:01:03;;;;;;;9.02;5.53;;;;;;;15.14;88.83;98464.41;5067820;28;20084;-64
2021/06/27 00:03:28;;;;;;;9.35;5.85;;;;;;;15.15;89.06;98466.13;5085226;28;20043;-64
2021/06/27 00:05:54;;;;;;;8.82;6.55;;;;;;;15.04;88.98;98456.88;5052721;28;20098;-64
2021/06/27 00:08:19;;;;;;;8.18;6.32;;;;;;;15.05;88.93;98453.31;5055536;28;20155;-64
2021/06/27 00:10:45;;;;;;;10.85;5.30;;;;;;;14.84;88.80;98444.41;5062036;28;20032;-64
2021/06/27 00:13:11;;;;;;;7.13;5.85;;;;;;;14.83;89.72;98444.47;5068092;28;20724;-64
2021/06/27 00:15:46;;;;;;;7.57;5.97;;;;;;;14.79;90.05;98445.53;5080005;28;20017;-64
2021/06/27 00:18:14;;;;;;;10.27;5.97;;;;;;;14.89;89.96;98449.53;5073299;28;20024;-64
2021/06/27 00:20:44;;;;;;;8.85;6.28;;;;;;;14.91;89.52;98460.94;5073920;28;20306;-64
2021/06/27 00:23:11;;;;;;;6.70;5.93;;;;;;;14.78;88.94;98470.31;5085017;28;20024;-64
2021/06/27 00:25:37;;;;;;;6.70;5.90;;;;;;;14.73;89.15;98465.19;5084959;28;20080;-64
2021/06/27 00:28:04;;;;;;;8.68;6.30;;;;;;;14.66;89.07;98466.34;5077402;28;20032;-64
2021/06/27 00:30:31;;;;;;;11.10;6.10;;;;;;;14.74;89.66;98466.03;5074109;28;20063;-64
2021/06/27 00:32:57;;;;;;;9.00;6.65;;;;;;;14.79;89.24;98462.28;5069591;28;20039;-64
2021/06/27 00:35:23;;;;;;;10.93;6.25;;;;;;;14.74;89.22;98471.31;5084709;28;20020;-64
2021/06/27 00:37:49;;;;;;;8.75;6.03;;;;;;;14.75;89.20;98471.25;5064573;28;20017;-64
2021/06/27 00:40:18;;;;;;;9.68;6.20;;;;;;;14.73;89.44;98466.94;5070400;28;20065;-64
2021/06/27 00:42:44;;;;;;;9.82;5.47;;;;;;;14.74;89.12;98463.38;5069238;28;20028;-64
2021/06/27 00:45:11;;;;;;;9.40;6.55;;;;;;;14.78;89.17;98459.72;5064434;28;20071;-64
2021/06/27 00:47:39;;;;;;;7.10;5.90;;;;;;;14.72;88.86;98466.06;5064728;28;20043;-64
2021/06/27 00:50:07;;;;;;;9.93;6.15;;;;;;;14.77;88.18;98468.56;5064467;28;20303;-64
2021/06/27 00:52:33;;;;;;;7.68;5.78;;;;;;;14.75;88.69;98470.41;5063591;28;20024;-64
2021/06/27 00:54:58;;;;;;;10.95;5.47;;;;;;;14.65;88.69;98469.91;5064391;28;20017;-64
2021/06/27 00:57:24;;;;;;;9.73;5.78;;;;;;;14.67;88.55;98467.19;5064098;28;20261;-64
2021/06/27 00:59:49;;;;;;;11.05;7.10;;;;;;;14.66;88.92;98465.47;5064351;28;20320;-64
2021/06/27 01:02:15;;;;;;;15.32;6.63;;;;;;;14.64;88.86;98473.47;5067573;28;20029;-64
2021/06/27 01:04:40;;;;;;;7.47;6.70;;;;;;;14.65;89.19;98469.06;5057193;28;20262;-64
2021/06/27 01:07:07;;;;;;;8.25;6.43;;;;;;;14.61;88.91;98467.41;5044325;28;20029;-64
2021/06/27 01:09:32;;;;;;;7.10;5.70;;;;;;;14.44;88.57;98465.44;5044275;28;20040;-64
2021/06/27 01:11:59;;;;;;;9.95;5.65;;;;;;;14.38;89.65;98464.78;5044103;28;20022;-64
2021/06/27 01:14:25;;;;;;;9.52;6.65;;;;;;;14.40;90.27;98462.94;5056731;28;20049;-64
2021/06/27 01:16:50;;;;;;;7.68;6.10;;;;;;;14.42;89.66;98466.38;5063996;28;20074;-64
2021/06/27 01:19:16;;;;;;;11.32;6.05;;;;;;;14.27;88.96;98467.81;5064009;28;20070;-64
2021/06/27 01:21:42;;;;;;;9.48;6.63;;;;;;;14.27;89.23;98467.81;5064000;28;20064;-64
2021/06/27 01:24:08;;;;;;;10.43;6.88;;;;;;;14.29;89.56;98481.00;5063906;28;20029;-64
2021/06/27 01:26:33;;;;;;;8.20;6.43;;;;;;;14.43;89.41;98478.72;5063943;28;20047;-64
2021/06/27 01:29:00;;;;;;;11.27;6.82;;;;;;;14.43;89.03;98473.44;5063895;28;20032;-64
2021/06/27 01:31:27;;;;;;;10.45;5.40;;;;;;;14.38;89.18;98483.31;5063841;28;20029;-64
2021/06/27 01:33:54;;;;;;;15.15;5.88;;;;;;;14.36;88.92;98474.53;5063779;28;20247;-64
2021/06/27 01:36:20;;;;;;;9.95;5.93;;;;;;;14.39;89.46;98479.72;5063875;28;20033;-64
2021/06/27 01:38:46;;;;;;;12.30;6.30;;;;;;;14.36;89.75;98477.19;5063793;28;20032;-64
2021/06/27 01:41:11;;;;;;;10.68;6.18;;;;;;;14.46;89.58;98468.03;5063787;28;20025;-64
2021/06/27 01:43:36;;;;;;;9.55;6.18;;;;;;;14.50;89.27;98470.50;5063783;28;20027;-64
2021/06/27 01:46:02;;;;;;;8.18;5.97;;;;;;;14.46;88.41;98457.44;5063801;28;20076;-64
2021/06/27 01:48:30;;;;;;;7.00;6.30;;;;;;;14.44;88.83;98448.66;5063719;28;20092;-64
2021/06/27 01:50:57;;;;;;;9.25;5.50;;;;;;;14.37;88.88;98436.59;5063696;28;20025;-64
2021/06/27 01:53:26;;;;;;;8.90;6.05;;;;;;;14.14;89.37;98433.91;5063637;28;20045;-64
2021/06/27 01:56:04;;;;;;;8.85;6.35;;;;;;;14.15;89.92;98422.38;5063627;28;20364;-64
2021/06/27 01:58:51;;;;;;;8.02;6.00;;;;;;;14.18;89.87;98411.69;5063583;28;20031;-64
2021/06/27 02:01:32;;;;;;;9.05;6.32;;;;;;;14.25;89.32;98415.84;5063660;28;20374;-64
2021/06/27 02:03:58;;;;;;;6.90;6.20;;;;;;;14.17;89.26;98415.22;5065657;28;20189;-64
2021/06/27 02:06:26;;;;;;;12.43;6.63;;;;;;;14.19;89.93;98406.31;5067563;28;20323;-64
2021/06/27 02:08:53;;;;;;;7.18;5.60;;;;;;;14.27;89.58;98398.13;5067521;28;20048;-64
2021/06/27 02:11:20;;;;;;;8.27;6.13;;;;;;;14.21;88.92;98396.53;5067522;28;20028;-64
2021/06/27 02:13:47;;;;;;;10.00;6.55;;;;;;;14.25;89.29;98395.53;5067238;28;20075;-64
2021/06/27 02:16:13;;;;;;;9.95;6.80;;;;;;;14.23;89.70;98401.78;5067369;28;20054;-64
2021/06/27 02:18:40;;;;;;;10.82;6.05;;;;;;;14.22;89.17;98395.63;5067340;28;20048;-64
2021/06/27 02:21:12;;;;;;;8.15;6.15;;;;;;;14.27;88.98;98388.38;5067325;28;20124;-64
2021/06/27 02:23:38;;;;;;;10.27;6.50;;;;;;;14.23;89.12;98385.91;5067332;28;20084;-64
2021/06/27 02:26:04;;;;;;;9.50;6.93;;;;;;;14.17;88.75;98380.81;5067123;28;20032;-64
2021/06/27 02:28:30;;;;;;;10.43;7.18;;;;;;;14.24;89.54;98385.03;5067157;28;20028;-64
2021/06/27 02:30:56;;;;;;;9.13;5.88;;;;;;;14.24;89.03;98382.38;5067115;28;20025;-64
2021/06/27 02:33:22;;;;;;;10.02;6.50;;;;;;;14.30;89.21;98387.44;5067088;28;20067;-64
2021/06/27 02:35:47;;;;;;;8.60;6.32;;;;;;;14.35;88.78;98396.91;5067001;28;20020;-64
2021/06/27 02:38:13;;;;;;;9.70;6.18;;;;;;;14.27;88.85;98396.34;5066986;28;20028;-64
2021/06/27 02:40:40;;;;;;;10.65;6.47;;;;;;;14.21;88.97;98393.03;5066966;28;20028;-64
2021/06/27 02:43:06;;;;;;;8.00;6.05;;;;;;;14.25;90.13;98394.66;5066880;28;20025;-64
2021/06/27 02:45:32;;;;;;;8.20;6.97;;;;;;;14.22;89.92;98394.75;5067061;28;20347;-64
2021/06/27 02:47:57;;;;;;;9.82;8.07;;;;;;;14.28;90.22;98384.84;5067010;28;20029;-64
2021/06/27 02:50:23;;;;;;;10.18;8.10;;;;;;;14.32;90.13;98374.97;5066758;28;20021;-64
2021/06/27 02:52:49;;;;;;;11.82;7.90;;;;;;;14.31;90.30;98374.13;5066719;28;20029;-64
2021/06/27 02:55:14;;;;;;;16.05;7.80;;;;;;;14.37;90.20;98367.75;5066701;28;20024;-63
2021/06/27 02:57:41;;;;;;;14.80;9.40;;;;;;;14.34;90.31;98376.63;5066612;28;20028;-63
2021/06/27 03:00:09;;;;;;;10.43;8.25;;;;;;;14.39;89.90;98371.16;5066588;28;20032;-63
2021/06/27 03:02:35;;;;;;;11.88;8.35;;;;;;;14.37;89.58;98375.69;5066815;28;20039;-63
2021/06/27 03:05:00;;;;;;;12.95;7.88;;;;;;;14.34;89.28;98378.44;5066404;28;20028;-63
2021/06/27 03:07:26;;;;;;;11.57;8.05;;;;;;;14.34;89.94;98381.09;5066449;28;20044;-64
2021/06/27 03:09:51;;;;;;;10.50;7.70;;;;;;;14.23;89.78;98377.97;5066387;28;20025;-63
2021/06/27 03:12:16;;;;;;;10.18;7.93;;;;;;;14.23;89.92;98364.75;5066395;28;20111;-63
2021/06/27 03:14:42;;;;;;;14.43;8.77;;;;;;;14.24;90.09;98374.44;5065577;28;20363;-63
2021/06/27 03:17:08;;;;;;;10.55;8.45;;;;;;;14.22;90.18;98363.00;5065897;28;20029;-63
2021/06/27 03:19:33;;;;;;;12.00;8.45;;;;;;;14.23;89.94;98354.16;5066199;28;20028;-63
2021/06/27 03:21:58;;;;;;;9.98;8.35;;;;;;;14.27;90.59;98355.78;5066166;28;20025;-63
2021/06/27 03:24:24;;;;;;;14.90;8.82;;;;;;;14.35;90.42;98356.34;5066066;28;20090;-63
2021/06/27 03:26:49;;;;;;;10.70;8.00;;;;;;;14.33;89.63;98350.25;5066085;28;20028;-63
2021/06/27 03:29:15;;;;;;;13.30;9.40;;;;;;;14.37;90.00;98359.78;5066042;28;20302;-63
2021/06/27 03:31:40;;;;;;;8.98;7.30;;;;;;;14.20;88.06;98362.16;5066046;28;20021;-63
2021/06/27 03:34:05;;;;;;;9.95;7.13;;;;;;;14.24;88.99;98369.13;5065944;28;20029;-64
2021/06/27 03:36:31;;;;;;;14.43;8.05;;;;;;;14.22;89.31;98363.00;5065903;28;20024;-64
2021/06/27 03:39:11;;;;;;;11.20;8.23;;;;;;;14.26;89.58;98361.97;5065837;28;20224;-64
2021/06/27 03:41:41;;;;;;;14.18;8.35;;;;;;;14.27;90.09;98361.06;5065817;28;20079;-64
2021/06/27 03:44:07;;;;;;;10.98;8.48;;;;;;;14.30;89.97;98363.59;5065945;28;20021;-64
2021/06/27 03:46:33;;;;;;;11.65;8.75;;;;;;;14.25;89.39;98362.91;5065738;28;20025;-64
2021/06/27 03:48:58;;;;;;;10.77;8.20;;;;;;;14.27;89.79;98366.38;5065665;28;20017;-64
2021/06/27 03:51:24;;;;;;;13.73;8.52;;;;;;;14.30;90.15;98360.97;5065604;28;20021;-64
2021/06/27 03:53:50;;;;;;;12.75;9.43;;;;;;;14.31;89.97;98346.78;5065566;28;20017;-64
2021/06/27 03:56:17;;;;;;;13.27;9.10;;;;;;;14.41;90.24;98358.75;5065493;28;20092;-64
2021/06/27 03:58:43;;;;;;;8.05;6.32;;;;;;;14.46;88.92;98367.38;5065380;28;20016;-64
2021/06/27 04:01:08;;;;;;;10.35;7.80;;;;;;;14.40;88.69;98354.38;5065672;28;20335;-64
2021/06/27 04:03:33;;;;;;;9.43;7.45;;;;;;;14.45;88.99;98355.03;5065378;28;20021;-64
2021/06/27 04:05:59;;;;;;;10.95;8.23;;;;;;;14.53;89.36;98367.06;5065281;28;20260;-64
2021/06/27 04:08:24;;;;;;;8.70;7.22;;;;;;;14.55;88.12;98372.28;5065521;28;20316;-64
2021/06/27 04:10:50;;;;;;;11.90;6.47;;;;;;;14.49;88.19;98377.88;5065253;28;20027;-63
2021/06/27 04:13:15;;;;;;;10.82;8.20;;;;;;;14.53;89.25;98374.16;5064996;28;20052;-63
2021/06/27 04:15:41;;;;;;;18.40;8.18;;;;;;;14.54;89.44;98362.63;5065407;28;20020;-64
2021/06/27 04:18:09;;;;;;;10.65;7.65;;;;;;;14.65;89.47;98363.94;5065061;28;20040;-64
2021/06/27 04:20:34;;;;;;;10.95;8.82;;;;;;;14.72;89.72;98359.28;5065042;28;20092;-63
2021/06/27 04:23:00;;;;;;;8.43;7.50;;;;;;;14.76;88.69;98360.88;5065018;28;20020;-63
2021/06/27 04:25:25;;;;;;;12.20;6.45;;;;;;;14.67;87.25;98362.09;5064894;28;20212;-64
2021/06/27 04:27:51;;;;;;;10.88;6.00;;;;;;;14.64;88.02;98358.69;5064798;28;20021;-64
2021/06/27 04:30:17;;;;;;;9.20;7.38;;;;;;;14.74;88.52;98357.41;5064861;28;20024;-64
2021/06/27 04:32:42;;;;;;;8.90;8.00;;;;;;;14.90;87.61;98358.50;5064867;28;20025;-64
2021/06/27 04:35:08;;;;;;;8.90;6.00;;;;;;;15.48;86.67;98355.19;5065050;28;20152;-64
2021/06/27 04:37:34;;;;;;;10.48;6.20;;;;;;;16.29;84.27;98355.91;5064818;28;20228;-64
2021/06/27 04:40:00;;;;;;;8.23;5.50;;;;;;;16.28;83.30;98352.41;5064717;28;20311;-64
2021/06/27 04:42:25;;;;;;;8.00;5.88;;;;;;;16.88;82.72;98352.19;5064661;28;20062;-64
2021/06/27 04:44:50;;;;;;;10.63;4.90;;;;;;;17.78;78.84;98351.16;5064517;28;20078;-64
2021/06/27 04:47:16;;;;;;;6.35;5.35;;;;;;;17.59;79.46;98347.72;5064589;28;20066;-64
2021/06/27 04:49:42;;;;;;;7.88;5.05;;;;;;;17.27;79.10;98352.84;5064543;28;20246;-64
2021/06/27 04:52:08;;;;;;;9.18;4.95;;;;;;;17.13;82.06;98352.69;5064506;28;20059;-64
2021/06/27 04:54:35;;;;;;;8.98;5.95;;;;;;;17.74;81.24;98346.91;5064421;28;20027;-64
2021/06/27 04:57:00;;;;;;;6.97;5.75;;;;;;;18.17;79.83;98346.34;5064317;28;20088;-64
2021/06/27 04:59:25;;;;;;;6.07;5.28;;;;;;;18.38;78.83;98347.88;5064361;28;20021;-64
2021/06/27 05:01:51;;;;;;;6.43;5.75;;;;;;;19.05;76.03;98343.16;5064313;28;20043;-64
2021/06/27 05:04:16;;;;;;;9.45;5.70;;;;;;;19.90;74.57;98350.44;5064237;28;20021;-64
2021/06/27 05:06:42;;;;;;;6.85;5.32;;;;;;;20.39;73.49;98359.00;5064897;28;20358;-64
2021/06/27 05:09:07;;;;;;;6.40;4.90;;;;;;;20.12;74.70;98361.56;5064234;28;20028;-64
2021/06/27 05:11:33;;;;;;;8.68;5.30;;;;;;;19.78;76.27;98345.88;5064127;28;20024;-64
2021/06/27 05:13:59;;;;;;;6.85;4.50;;;;;;;19.35;77.99;98344.03;5063975;28;20041;-64
2021/06/27 05:16:24;;;;;;;6.93;4.95;;;;;;;18.96;80.54;98343.66;5064114;28;20017;-64
2021/06/27 05:18:49;;;;;;;9.07;5.32;;;;;;;18.77;79.55;98348.31;5063994;28;20101;-64
2021/06/27 05:21:15;;;;;;;12.63;6.53;;;;;;;18.48;80.32;98347.28;5063984;28;20052;-64
2021/06/27 05:23:40;;;;;;;5.93;5.32;;;;;;;18.55;81.14;98342.47;5063980;28;20016;-64
2021/06/27 05:26:06;;;;;;;6.63;5.93;;;;;;;18.52;82.57;98345.31;5063891;28;20051;-64
2021/06/27 05:28:31;;;;;;;8.20;5.28;;;;;;;18.62;81.83;98346.50;5063933;28;20097;-64
2021/06/27 05:30:57;;;;;;;8.13;6.65;;;;;;;18.45;83.64;98346.59;5064157;28;20024;-64
2021/06/27 05:33:22;;;;;;;8.48;5.25;;;;;;;18.55;81.31;98342.47;5063877;28;20267;-64
2021/06/27 05:35:48;;;;;;;8.73;5.63;;;;;;;19.15;80.00;98345.16;5063847;28;20020;-64
2021/06/27 05:38:13;;;;;;;6.85;6.15;;;;;;;19.79;78.89;98347.59;5061592;28;20075;-64
2021/06/27 05:40:39;;;;;;;7.88;5.65;;;;;;;20.18;78.11;98345.16;5063774;28;20053;-64
2021/06/27 05:43:05;;;;;;;5.43;4.93;;;;;;;20.80;75.27;98344.72;5064021;28;20300;-64
2021/06/27 05:45:31;;;;;;;6.18;4.97;;;;;;;21.53;74.19;98339.84;5063700;28;20021;-64
2021/06/27 05:47:56;;;;;;;8.15;5.75;;;;;;;22.59;72.28;98344.88;5063759;28;20098;-64
2021/06/27 05:50:22;;;;;;;8.48;5.95;;;;;;;23.32;66.49;98340.31;5063693;28;20312;-64
2021/06/27 05:52:47;;;;;;;7.38;5.10;;;;;;;24.01;63.01;98343.88;5063704;28;20028;-64
2021/06/27 05:55:14;;;;;;;7.43;5.00;;;;;;;24.42;64.10;98338.78;5054715;28;20017;-64
2021/06/27 05:57:39;;;;;;;7.25;4.85;;;;;;;24.96;57.87;98328.09;5043639;28;20045;-64
2021/06/27 06:00:07;;;;;;;5.97;5.07;;;;;;;24.78;60.23;98333.16;5043719;28;20067;-64
2021/06/27 06:02:32;;;;;;;8.30;5.22;;;;;;;24.50;61.54;98333.66;5043593;28;20025;-64
2021/06/27 06:04:58;;;;;;;6.65;5.03;;;;;;;24.74;60.57;98339.78;5043566;28;20088;-64
2021/06/27 06:07:23;;;;;;;6.95;4.70;;;;;;;25.03;54.38;98338.25;5043601;28;20313;-64
2021/06/27 06:09:48;;;;;;;5.28;4.55;;;;;;;25.37;57.27;98330.13;5043591;28;20260;-64
2021/06/27 06:12:14;;;;;;;6.72;4.90;;;;;;;25.23;53.97;98329.41;5043619;28;20029;-64
2021/06/27 06:14:39;;;;;;;5.10;4.60;;;;;;;25.68;55.17;98343.56;5043400;28;20325;-64
2021/06/27 06:17:05;;;;;;;6.55;4.85;;;;;;;25.74;54.31;98334.94;5042936;28;20079;-64
2021/06/27 06:19:30;;;;;;;6.10;4.88;;;;;;;25.69;56.09;98336.34;5043481;28;20252;-64
2021/06/27 06:21:57;;;;;;;7.00;4.32;;;;;;;26.35;56.93;98335.94;5043435;28;20033;-64
2021/06/27 06:24:23;;;;;;;5.32;4.68;;;;;;;26.43;53.90;98328.88;5043410;28;20026;-64
2021/06/27 06:26:49;;;;;;;5.28;4.47;;;;;;;26.98;53.56;98330.22;5043447;28;20032;-64
2021/06/27 06:29:14;;;;;;;5.65;3.88;;;;;;;27.34;51.49;98335.03;5043415;28;20084;-64
2021/06/27 06:31:39;;;;;;;4.65;4.18;;;;;;;27.41;51.30;98330.75;5043419;28;20028;-64
2021/06/27 06:34:05;;;;;;;4.82;4.00;;;;;;;27.02;49.62;98331.69;5043385;28;20025;-64
2021/06/27 06:36:30;;;;;;;4.10;3.70;;;;;;;27.63;49.20;98327.78;5043358;28;20081;-64
2021/06/27 06:38:56;;;;;;;4.22;3.60;;;;;;;28.15;50.13;98334.56;5043340;28;20217;-64
2021/06/27 06:41:21;;;;;;;4.97;3.90;;;;;;;28.21;46.42;98332.13;5043326;28;20017;-64
2021/06/27 06:43:47;;;;;;;4.38;3.97;;;;;;;28.20;49.25;98330.44;5043256;28;20029;-64
2021/06/27 06:46:12;;;;;;;4.88;3.50;;;;;;;28.56;47.01;98329.63;5043217;28;20025;-64
2021/06/27 06:48:38;;;;;;;5.15;3.88;;;;;;;28.72;47.72;98329.84;5043260;28;20021;-64
2021/06/27 06:51:04;;;;;;;5.70;3.90;;;;;;;28.60;48.51;98341.03;5044842;28;20251;-64
2021/06/27 06:53:29;;;;;;;3.88;3.50;;;;;;;28.93;43.00;98349.44;5046749;28;20029;-64
2021/06/27 06:55:57;;;;;;;4.22;3.83;;;;;;;28.40;45.00;98351.03;5046705;28;20081;-64
2021/06/27 06:58:24;;;;;;;5.80;3.80;;;;;;;28.20;44.77;98348.53;5046862;28;20305;-64
2021/06/27 07:00:50;;;;;;;6.82;3.97;;;;;;;28.66;44.56;98362.09;5046649;28;20021;-64
2021/06/27 07:03:16;;;;;;;5.88;3.58;;;;;;;29.10;45.03;98355.91;5046846;28;20021;-64
2021/06/27 07:05:41;;;;;;;4.97;3.83;;;;;;;28.60;44.64;98358.13;5046483;28;20041;-64
2021/06/27 07:08:07;;;;;;;5.25;3.55;;;;;;;28.93;46.52;98353.97;5046498;28;20088;-64
2021/06/27 07:10:32;;;;;;;6.15;3.72;;;;;;;29.06;44.83;98355.38;5046473;28;20221;-64
2021/06/27 07:12:58;;;;;;;9.27;3.70;;;;;;;28.99;43.64;98358.81;5046220;28;20068;-64
2021/06/27 07:15:23;;;;;;;3.05;2.85;;;;;;;29.68;43.70;98353.69;5046409;28;20055;-64
2021/06/27 07:17:49;;;;;;;4.60;3.30;;;;;;;30.13;44.96;98357.13;5046335;28;20021;-64
2021/06/27 07:20:14;;;;;;;3.70;3.38;;;;;;;30.91;40.91;98370.59;5046542;28;20017;-64
2021/06/27 07:22:41;;;;;;;6.30;3.78;;;;;;;29.71;42.43;98356.09;5046247;28;20029;-64
2021/06/27 07:25:07;;;;;;;3.75;3.42;;;;;;;29.77;44.16;98355.47;5046458;28;20088;-64
2021/06/27 07:27:33;;;;;;;4.40;3.78;;;;;;;29.00;45.54;98360.50;5046356;28;20017;-64
2021/06/27 07:29:59;;;;;;;4.90;3.50;;;;;;;29.46;44.42;98362.25;5046351;28;20364;-64
2021/06/27 07:32:24;;;;;;;3.75;3.42;;;;;;;29.53;43.17;98349.78;5051387;28;20023;-64
2021/06/27 07:34:50;;;;;;;5.07;3.50;;;;;;;30.35;46.12;98345.78;5054945;28;20021;-64
2021/06/27 07:37:15;;;;;;;3.47;3.17;;;;;;;30.17;41.38;98347.66;5060433;28;20017;-64
2021/06/27 07:39:41;;;;;;;4.88;3.22;;;;;;;30.98;42.97;98339.03;5065858;28;20316;-64
2021/06/27 07:42:06;;;;;;;6.30;3.72;;;;;;;30.36;40.40;98342.03;5065908;28;20027;-64
2021/06/27 07:44:32;;;;;;;6.05;3.45;;;;;;;29.68;41.47;98332.84;5065616;28;20028;-64
2021/06/27 07:46:57;;;;;;;3.88;3.05;;;;;;;30.40;39.61;98332.59;5065703;28;20024;-64
2021/06/27 07:49:23;;;;;;;6.20;3.58;;;;;;;29.56;41.19;98320.50;5065183;28;20017;-64
2021/06/27 07:51:48;;;;;;;4.53;3.05;;;;;;;30.58;40.51;98322.47;5065642;28;20024;-64
2021/06/27 07:54:14;;;;;;;3.58;3.10;;;;;;;30.73;39.12;98323.63;5065564;28;20016;-64
2021/06/27 07:56:39;;;;;;;5.75;3.70;;;;;;;29.65;40.24;98322.31;5065557;28;20041;-64
2021/06/27 07:59:05;;;;;;;11.00;3.40;;;;;;;29.31;42.22;98321.25;5065439;28;20335;-64
2021/06/27 08:01:30;;;;;;;3.65;3.20;;;;;;;28.77;42.44;98316.72;5065000;28;20025;-64
2021/06/27 08:03:55;;;;;;;4.72;3.20;;;;;;;28.70;41.33;98325.59;5065432;28;20258;-64
2021/06/27 08:06:21;;;;;;;3.75;3.15;;;;;;;29.23;41.50;98328.44;5065220;28;20220;-64
2021/06/27 08:08:46;;;;;;;3.78;2.90;;;;;;;29.27;41.15;98319.00;5065539;28;20021;-64
2021/06/27 08:11:12;;;;;;;4.95;2.92;;;;;;;29.08;41.79;98337.09;5065310;28;20021;-64
2021/06/27 08:13:37;;;;;;;3.88;3.10;;;;;;;28.64;42.95;98332.47;5065177;28;20114;-64
2021/06/27 08:16:03;;;;;;;3.45;2.83;;;;;;;28.51;45.19;98326.50;5065439;28;20020;-64
2021/06/27 08:18:29;;;;;;;3.40;3.10;;;;;;;29.23;46.63;98327.44;5065081;28;20024;-64
2021/06/27 08:20:55;;;;;;;3.53;3.05;;;;;;;28.77;44.54;98332.97;5065030;28;20024;-64
2021/06/27 08:23:20;;;;;;;5.13;2.92;;;;;;;28.75;44.59;98328.69;5063833;28;20021;-64
2021/06/27 08:25:46;;;;;;;9.50;3.30;;;;;;;28.67;44.20;98321.28;5063761;28;20051;-64
2021/06/27 08:28:11;;;;;;;3.03;2.60;;;;;;;28.74;41.90;98326.97;5064956;28;20044;-64
2021/06/27 08:30:37;;;;;;;3.80;3.10;;;;;;;29.42;43.38;98317.47;5064878;28;20216;-64
2021/06/27 08:33:03;;;;;;;3.28;2.80;;;;;;;29.81;40.27;98319.72;5064843;28;20024;-64
2021/06/27 08:35:29;;;;;;;6.82;3.20;;;;;;;30.11;39.91;98322.00;5064826;28;20212;-64
2021/06/27 08:37:55;;;;;;;5.70;2.63;;;;;;;30.50;42.52;98322.47;5064734;28;20021;-64
2021/06/27 08:40:21;;;;;;;4.40;3.28;;;;;;;30.91;41.28;98321.66;5064963;28;20028;-64
2021/06/27 08:42:46;;;;;;;3.60;3.00;;;;;;;31.66;38.23;98318.81;5064660;28;20024;-64
2021/06/27 08:45:13;;;;;;;3.13;2.78;;;;;;;30.58;39.05;98319.78;5064588;28;20036;-64
2021/06/27 08:47:39;;;;;;;3.75;3.22;;;;;;;30.52;41.24;98312.25;5064560;28;20060;-64
2021/06/27 08:50:08;;;;;;;3.63;2.70;;;;;;;31.12;37.15;98309.34;5064480;28;20025;-64
2021/06/27 08:52:34;;;;;;;3.38;2.55;;;;;;;31.43;40.28;98309.59;5064405;28;20035;-64
2021/06/27 08:55:00;;;;;;;3.13;2.65;;;;;;;31.60;40.01;98297.72;5064487;28;20025;-64
2021/06/27 08:57:26;;;;;;;3.20;2.90;;;;;;;31.11;37.10;98314.94;5064324;28;20324;-64
2021/06/27 08:59:53;;;;;;;4.78;3.00;;;;;;;30.47;39.43;98307.31;5064353;28;20078;-64
2021/06/27 09:02:19;;;;;;;4.28;3.17;;;;;;;30.30;39.95;98302.81;5064323;28;20027;-64
2021/06/27 09:04:45;;;;;;;3.10;2.80;;;;;;;29.99;38.80;98295.28;5064229;28;20225;-64
2021/06/27 09:07:28;;;;;;;4.13;3.00;;;;;;;29.35;40.84;98283.84;5064278;28;20029;-64
2021/06/27 09:10:05;;;;;;;3.00;2.75;;;;;;;30.06;41.46;98296.34;5064457;28;20067;-64
2021/06/27 09:12:56;;;;;;;4.43;2.30;;;;;;;29.44;41.11;98300.03;5063984;28;20048;-64
2021/06/27 09:15:45;;;;;;;2.92;2.40;;;;;;;30.35;39.06;98307.75;5064130;28;20017;-64
2021/06/27 09:18:24;;;;;;;3.28;2.95;;;;;;;31.14;38.00;98301.00;5064055;28;20037;-64
2021/06/27 09:20:52;;;;;;;3.63;2.60;;;;;;;31.02;36.67;98307.75;5064094;28;20025;-64
2021/06/27 09:23:31;;;;;;;5.32;2.55;;;;;;;31.00;36.79;98298.91;5064011;28;20360;-64
2021/06/27 09:25:57;;;;;;;3.80;2.85;;;;;;;31.29;39.03;98309.41;5063926;28;20028;-64
2021/06/27 09:28:22;;;;;;;4.97;2.70;;;;;;;29.17;39.37;98303.66;5063936;28;20304;-64
2021/06/27 09:30:50;;;;;;;2.85;2.50;;;;;;;29.69;39.17;98293.00;5064023;28;20252;-64
2021/06/27 09:33:22;;;;;;;4.10;2.80;;;;;;;29.59;40.32;98303.03;5063850;28;20025;-64
2021/06/27 09:35:57;;;;;;;4.30;2.60;;;;;;;29.14;40.60;98308.53;5063846;28;20067;-64
2021/06/27 09:38:22;;;;;;;3.20;2.60;;;;;;;29.62;42.76;98297.34;5063875;28;20224;-64
2021/06/27 09:40:51;;;;;;;2.85;2.58;;;;;;;30.36;41.76;98298.59;5064083;28;20024;-64
2021/06/27 09:43:18;;;;;;;3.13;2.83;;;;;;;30.03;41.15;98304.81;5063767;28;20048;-64
2021/06/27 09:45:49;;;;;;;3.00;2.50;;;;;;;28.82;39.17;98308.13;5063675;28;20025;-64
2021/06/27 09:48:15;;;;;;;4.93;2.72;;;;;;;28.96;39.27;98311.19;5063856;28;20021;-64
2021/06/27 09:50:41;;;;;;;2.85;2.65;;;;;;;28.38;41.96;98298.88;5063751;28;20044;-64
2021/06/27 09:53:35;;;;;;;3.58;2.55;;;;;;;29.11;40.88;98298.84;5063699;28;20024;-64
2021/06/27 09:56:02;;;;;;;4.35;2.75;;;;;;;30.04;39.65;98287.50;5063717;28;20016;-64
2021/06/27 09:58:28;;;;;;;2.60;2.40;;;;;;;31.07;38.89;98289.09;5063549;28;20101;-64
2021/06/27 10:00:56;;;;;;;3.33;2.30;;;;;;;30.67;37.25;98286.19;5063624;28;20243;-64
2021/06/27 10:03:22;;;;;;;2.95;2.28;;;;;;;30.11;37.60;98283.13;5063582;28;20031;-64
2021/06/27 10:05:48;;;;;;;3.30;2.70;;;;;;;29.82;38.79;98282.56;5063488;28;20081;-64
2021/06/27 10:08:27;;;;;;;3.22;2.92;;;;;;;30.65;37.21;98271.91;5063519;28;20325;-64
2021/06/27 10:11:16;;;;;;;4.20;2.55;;;;;;;30.28;39.16;98276.84;5063808;28;20025;-64
2021/06/27 10:13:46;;;;;;;3.50;2.50;;;;;;;28.89;42.20;98288.38;5063371;28;20037;-64
2021/06/27 10:16:15;;;;;;;3.63;2.67;;;;;;;29.53;39.83;98287.38;5063472;28;20021;-64
2021/06/27 10:18:42;;;;;;;3.28;2.45;;;;;;;30.30;40.46;98289.22;5063427;28;20025;-64
2021/06/27 10:21:08;;;;;;;5.63;2.65;;;;;;;30.33;38.24;98282.63;5063468;28;20063;-64
2021/06/27 10:23:34;;;;;;;2.72;2.53;;;;;;;30.63;37.96;98274.78;5063723;28;20024;-64
2021/06/27 10:26:01;;;;;;;4.25;2.70;;;;;;;30.05;41.40;98278.34;5066531;28;20088;-64
2021/06/27 10:28:27;;;;;;;3.47;2.53;;;;;;;29.19;40.28;98285.38;5059781;28;20326;-64
2021/06/27 10:30:53;;;;;;;3.50;2.80;;;;;;;28.98;41.82;98283.94;5057343;28;20017;-64
2021/06/27 10:33:19;;;;;;;2.95;2.72;;;;;;;29.06;40.48;98284.91;5055555;28;20048;-64
2021/06/27 10:35:50;;;;;;;2.70;2.50;;;;;;;28.58;43.12;98289.72;5056535;28;20368;-64
2021/06/27 10:38:20;;;;;;;3.08;2.75;;;;;;;28.55;42.27;98279.19;5055702;28;20021;-64
2021/06/27 10:40:58;;;;;;;3.67;2.92;;;;;;;28.19;43.54;98276.44;5056713;28;20066;-64
2021/06/27 10:43:25;;;;;;;2.95;2.70;;;;;;;29.35;41.38;98267.56;5056347;28;20017;-64
2021/06/27 10:45:51;;;;;;;2.80;2.50;;;;;;;29.27;39.40;98280.03;5055921;28;20021;-64
2021/06/27 10:48:32;;;;;;;4.63;2.60;;;;;;;29.23;39.68;98274.22;5057768;28;20092;-64
2021/06/27 10:50:59;;;;;;;3.03;2.53;;;;;;;29.12;38.78;98275.31;5057467;28;20021;-64
2021/06/27 10:53:25;;;;;;;3.10;2.80;;;;;;;28.87;41.12;98273.28;5056790;28;20025;-64
2021/06/27 10:55:51;;;;;;;3.25;2.95;;;;;;;28.52;43.44;98276.78;5055430;28;20029;-64
2021/06/27 10:58:18;;;;;;;4.53;3.10;;;;;;;28.29;41.67;98272.72;5055401;28;20055;-64
2021/06/27 11:01:01;;;;;;;5.15;2.80;;;;;;;28.08;44.33;98272.06;5056268;28;20017;-64
2021/06/27 11:03:26;;;;;;;2.58;2.38;;;;;;;27.90;43.68;98271.09;5061285;28;20025;-64
2021/06/27 11:05:56;;;;;;;3.00;2.70;;;;;;;28.13;43.16;98272.50;5051592;28;20029;-64
2021/06/27 11:08:51;;;;;;;3.53;2.45;;;;;;;27.91;45.50;98272.84;5046537;28;20025;-64
2021/06/27 11:11:21;;;;;;;4.85;2.85;;;;;;;28.19;42.62;98269.16;5046287;28;20030;-64
2021/06/27 11:14:11;;;;;;;4.25;3.05;;;;;;;27.99;43.63;98267.53;5046222;28;20113;-64
2021/06/27 11:16:59;;;;;;;3.25;2.75;;;;;;;28.15;45.33;98265.06;5046632;28;20358;-64
2021/06/27 11:19:29;;;;;;;3.45;2.63;;;;;;;28.16;45.39;98272.16;5046298;28;20096;-64
2021/06/27 11:22:23;;;;;;;3.72;2.95;;;;;;;27.87;43.69;98271.41;5046243;28;20025;-64
2021/06/27 11:24:52;;;;;;;2.95;2.50;;;;;;;27.95;44.73;98270.66;5046114;28;20025;-64
2021/06/27 11:27:32;;;;;;;3.03;2.72;;;;;;;28.17;42.12;98268.47;5046116;28;20092;-64
2021/06/27 11:29:59;;;;;;;3.70;2.65;;;;;;;27.93;44.39;98260.00;5046106;28;20025;-64
2021/06/27 11:32:24;;;;;;;4.15;2.45;;;;;;;27.99;45.00;98264.81;5046062;28;20032;-64